Time;durP1;ratioP1;P1;durP2;ratioP2;P2;SDS_P1;SDS_P2;PMS_P1;PMS_P2;Temp;Humidity;BMP_temperature;BMP_pressure;BME280_temperature;BME280_humidity;BME280_pressure;Samples;Min_cycle;Max_cycle;Signal;HPM_P1;HPM_P2
2023/12/16 00:02:13;;;;;;;6.70;6.10;;;22.60;66.70;;;;;;6206901;28;90048;-59
2023/12/16 00:05:15;;;;;;;6.85;6.15;;;22.60;66.70;;;;;;6206777;28;89115;-59
2023/12/16 00:08:17;;;;;;;6.35;5.75;;;22.60;66.60;;;;;;6220515;28;89264;-59
2023/12/16 00:11:19;;;;;;;6.78;6.15;;;22.60;66.70;;;;;;6215044;28;89003;-58
2023/12/16 00:14:23;;;;;;;6.82;5.95;;;22.50;66.60;;;;;;6189598;28;89062;-59
2023/12/16 00:17:25;;;;;;;6.75;5.95;;;22.50;66.60;;;;;;6210798;28;89116;-59
2023/12/16 00:20:27;;;;;;;6.55;5.90;;;22.50;66.60;;;;;;6229113;28;89237;-59
2023/12/16 00:23:28;;;;;;;7.25;6.40;;;22.50;66.50;;;;;;6207746;28;87143;-59
2023/12/16 00:26:31;;;;;;;6.65;6.05;;;22.50;66.60;;;;;;6221270;28;89311;-59
2023/12/16 00:29:34;;;;;;;6.93;6.22;;;22.50;66.50;;;;;;6204903;28;88812;-59
2023/12/16 00:32:39;;;;;;;6.60;6.00;;;22.50;66.50;;;;;;6205358;28;89762;-59
2023/12/16 00:35:41;;;;;;;6.20;5.57;;;22.40;66.40;;;;;;6219618;28;88832;-59
2023/12/16 00:38:43;;;;;;;5.78;5.20;;;22.50;66.50;;;;;;6207829;28;88992;-59
2023/12/16 00:41:45;;;;;;;6.95;6.03;;;22.40;66.40;;;;;;6206765;28;89438;-59
2023/12/16 00:44:48;;;;;;;6.22;5.63;;;22.40;66.40;;;;;;6206484;28;89037;-59
2023/12/16 00:47:50;;;;;;;8.63;6.45;;;22.40;66.40;;;;;;6206356;28;89799;-59
2023/12/16 00:50:52;;;;;;;6.70;5.85;;;22.40;66.40;;;;;;6217639;28;89115;-59
2023/12/16 00:53:54;;;;;;;6.38;5.65;;;22.40;66.50;;;;;;6185011;28;88496;-59
2023/12/16 00:56:56;;;;;;;5.82;5.22;;;22.40;66.50;;;;;;6204643;28;89072;-59
2023/12/16 01:00:00;;;;;;;5.95;5.35;;;22.40;66.50;;;;;;6206021;28;89726;-59
2023/12/16 01:03:02;;;;;;;6.03;5.43;;;22.30;66.50;;;;;;6206641;28;88864;-59
2023/12/16 01:06:05;;;;;;;6.22;5.63;;;22.30;66.60;;;;;;6206513;28;89054;-59
2023/12/16 01:09:07;;;;;;;6.10;5.50;;;22.30;66.60;;;;;;6207469;28;89075;-59
2023/12/16 01:12:09;;;;;;;6.53;5.57;;;22.40;66.60;;;;;;6206627;28;87836;-59
2023/12/16 01:15:13;;;;;;;6.18;5.53;;;22.30;66.40;;;;;;6206103;28;87905;-59
2023/12/16 01:18:15;;;;;;;5.70;5.07;;;22.30;66.40;;;;;;6207940;28;89831;-58
2023/12/16 01:21:17;;;;;;;5.47;4.97;;;22.30;66.40;;;;;;6201143;28;89105;-59
2023/12/16 01:24:19;;;;;;;6.00;5.40;;;22.30;66.50;;;;;;6210121;28;88388;-59
2023/12/16 01:27:21;;;;;;;6.22;5.63;;;22.30;66.40;;;;;;6211519;28;89057;-59
2023/12/16 01:30:25;;;;;;;6.05;5.45;;;22.30;66.40;;;;;;6225198;28;89485;-59
2023/12/16 01:33:27;;;;;;;5.70;5.10;;;22.30;66.40;;;;;;6200422;28;89927;-60
2023/12/16 01:36:29;;;;;;;6.45;5.47;;;22.20;66.40;;;;;;6205541;28;89137;-58
2023/12/16 01:39:31;;;;;;;6.40;5.30;;;22.30;66.40;;;;;;6194895;28;89274;-59
2023/12/16 01:42:33;;;;;;;5.25;4.68;;;22.30;66.40;;;;;;6204600;28;88048;-59
2023/12/16 01:45:36;;;;;;;5.50;5.00;;;22.30;66.40;;;;;;6205491;28;88487;-59
2023/12/16 01:48:40;;;;;;;5.13;4.63;;;22.20;66.20;;;;;;6219216;28;89365;-59
2023/12/16 01:51:43;;;;;;;5.40;4.90;;;22.30;66.30;;;;;;6214847;28;89069;-59
2023/12/16 01:54:45;;;;;;;5.03;4.53;;;22.20;66.40;;;;;;6209890;28;88325;-59
2023/12/16 01:57:48;;;;;;;5.22;4.72;;;22.20;66.50;;;;;;6218207;28;87979;-59
2023/12/16 02:00:52;;;;;;;5.60;5.00;;;22.20;66.60;;;;;;6222276;28;89061;-59
2023/12/16 02:03:55;;;;;;;5.18;4.68;;;22.10;67.60;;;;;;6199305;28;90002;-59
2023/12/16 02:06:57;;;;;;;5.25;4.75;;;22.20;66.70;;;;;;6198952;28;89221;-59
2023/12/16 02:10:01;;;;;;;5.47;4.97;;;22.20;66.90;;;;;;6203544;28;89553;-59
2023/12/16 02:13:03;;;;;;;5.00;4.50;;;22.10;66.80;;;;;;6205002;28;89066;-59
2023/12/16 02:16:09;;;;;;;5.25;4.75;;;22.10;66.80;;;;;;6192309;28;89108;-59
2023/12/16 02:19:13;;;;;;;8.18;5.30;;;22.10;66.70;;;;;;6204129;28;89177;-58
2023/12/16 02:22:15;;;;;;;4.97;4.47;;;22.10;66.60;;;;;;6209047;28;89035;-59
2023/12/16 02:25:18;;;;;;;5.03;4.53;;;22.10;66.60;;;;;;6204732;28;88304;-59
2023/12/16 02:28:20;;;;;;;8.52;5.72;;;22.10;66.50;;;;;;6194804;28;89016;-59
2023/12/16 02:31:22;;;;;;;4.90;4.28;;;22.10;66.60;;;;;;6205846;28;87992;-58
2023/12/16 02:34:24;;;;;;;9.35;5.80;;;22.10;66.50;;;;;;6200091;28;89969;-59
2023/12/16 02:37:26;;;;;;;5.35;4.65;;;22.10;66.40;;;;;;6191350;28;89481;-59
2023/12/16 02:40:30;;;;;;;4.78;4.25;;;22.10;66.40;;;;;;6206086;28;91165;-59
2023/12/16 02:43:32;;;;;;;4.22;3.83;;;22.10;66.50;;;;;;6215435;28;88988;-59
2023/12/16 02:46:34;;;;;;;5.20;4.30;;;22.00;66.30;;;;;;6202259;28;89143;-59
2023/12/16 02:49:36;;;;;;;6.28;4.80;;;22.00;66.30;;;;;;6217619;28;89028;-59
2023/12/16 02:52:37;;;;;;;4.38;3.97;;;22.00;66.40;;;;;;6204795;28;89288;-59
2023/12/16 02:55:41;;;;;;;4.70;4.25;;;22.00;66.40;;;;;;6203198;28;90260;-59
2023/12/16 02:58:43;;;;;;;4.85;4.22;;;22.00;66.50;;;;;;6203498;28;89491;-59
2023/12/16 03:01:46;;;;;;;5.00;4.22;;;22.00;66.40;;;;;;6203409;28;88025;-59
2023/12/16 03:04:48;;;;;;;5.40;4.45;;;22.00;66.50;;;;;;6202957;28;89857;-59
2023/12/16 03:07:50;;;;;;;5.60;4.60;;;22.00;66.50;;;;;;6204929;28;89421;-59
2023/12/16 03:10:54;;;;;;;5.32;4.68;;;22.00;66.40;;;;;;6199885;28;89111;-59
2023/12/16 03:13:56;;;;;;;4.90;4.40;;;22.00;66.40;;;;;;6206588;28;89307;-59
2023/12/16 03:16:58;;;;;;;4.90;4.20;;;22.00;66.40;;;;;;6201805;28;89151;-59
2023/12/16 03:20:00;;;;;;;4.40;4.00;;;22.00;66.40;;;;;;6208457;28;89326;-59
2023/12/16 03:23:02;;;;;;;4.55;4.10;;;22.00;66.40;;;;;;6229587;28;88914;-59
2023/12/16 03:26:07;;;;;;;4.80;4.20;;;22.00;66.40;;;;;;6212492;28;87259;-59
2023/12/16 03:29:09;;;;;;;5.22;4.70;;;22.00;66.40;;;;;;6205878;28;88981;-59
2023/12/16 03:32:11;;;;;;;5.65;4.40;;;22.00;66.30;;;;;;6197185;28;89063;-59
2023/12/16 03:35:13;;;;;;;6.20;4.85;;;22.00;66.40;;;;;;6207053;28;88965;-59
2023/12/16 03:38:15;;;;;;;4.68;4.10;;;22.00;66.30;;;;;;6199253;28;89075;-59
2023/12/16 03:41:18;;;;;;;4.57;4.10;;;22.00;66.20;;;;;;6215380;28;89505;-59
2023/12/16 03:44:20;;;;;;;4.20;3.80;;;22.00;66.20;;;;;;6204684;28;89054;-59
2023/12/16 03:47:22;;;;;;;4.60;4.20;;;22.00;66.20;;;;;;6208259;28;89354;-59
2023/12/16 03:50:24;;;;;;;5.38;4.22;;;21.90;66.10;;;;;;6218811;28;89165;-59
2023/12/16 03:53:26;;;;;;;5.20;4.57;;;22.00;66.10;;;;;;6206257;28;88792;-59
2023/12/16 03:56:30;;;;;;;4.60;4.00;;;21.90;66.60;;;;;;6210444;28;88395;-59
2023/12/16 03:59:32;;;;;;;9.52;5.45;;;21.90;66.10;;;;;;6206102;28;89056;-59
2023/12/16 04:02:34;;;;;;;4.80;4.30;;;21.90;66.00;;;;;;6207132;28;89138;-59
2023/12/16 04:05:37;;;;;;;4.47;4.07;;;21.90;66.10;;;;;;6210323;28;89790;-59
2023/12/16 04:08:39;;;;;;;4.72;4.25;;;21.90;66.00;;;;;;6202719;28;89514;-59
2023/12/16 04:11:48;;;;;;;4.30;3.90;;;21.80;66.00;;;;;;6216617;28;88983;-59
2023/12/16 04:14:50;;;;;;;4.50;4.10;;;21.90;66.00;;;;;;6209742;28;89155;-59
2023/12/16 04:17:52;;;;;;;4.53;4.13;;;21.90;66.10;;;;;;6205601;28;89587;-59
2023/12/16 04:20:54;;;;;;;4.65;4.15;;;21.80;66.10;;;;;;6207006;28;89002;-59
2023/12/16 04:23:56;;;;;;;5.97;4.70;;;21.80;66.10;;;;;;6207848;28;89485;-59
2023/12/16 04:26:59;;;;;;;5.78;4.20;;;21.80;66.00;;;;;;6215059;28;88531;-59
2023/12/16 04:30:01;;;;;;;4.72;4.25;;;21.80;66.10;;;;;;6219250;28;89017;-59
2023/12/16 04:33:03;;;;;;;4.97;4.20;;;21.80;66.10;;;;;;6207373;28;89023;-59
2023/12/16 04:36:06;;;;;;;4.80;4.28;;;21.80;66.10;;;;;;6212113;28;88880;-59
2023/12/16 04:39:08;;;;;;;5.15;4.43;;;21.80;66.20;;;;;;6226195;28;89061;-59
2023/12/16 04:42:12;;;;;;;5.40;4.60;;;21.80;66.30;;;;;;6207353;28;89048;-59
2023/12/16 04:45:14;;;;;;;4.95;4.45;;;21.80;66.30;;;;;;6195789;28;89083;-59
2023/12/16 04:48:16;;;;;;;5.22;4.70;;;21.80;66.40;;;;;;6204440;28;89084;-59
2023/12/16 04:51:18;;;;;;;4.43;4.03;;;21.80;66.40;;;;;;6222696;28;89055;-59
2023/12/16 04:54:20;;;;;;;4.55;4.10;;;21.80;66.60;;;;;;6199694;28;89142;-59
2023/12/16 04:57:23;;;;;;;4.57;4.10;;;21.80;66.40;;;;;;6213777;28;88636;-59
2023/12/16 05:00:25;;;;;;;4.35;3.95;;;21.80;66.20;;;;;;6207174;28;89057;-59
2023/12/16 05:03:27;;;;;;;6.13;4.50;;;21.80;66.20;;;;;;6204502;28;89061;-59
2023/12/16 05:06:29;;;;;;;4.07;3.72;;;21.80;66.00;;;;;;6206397;28;89914;-59
2023/12/16 05:09:31;;;;;;;4.00;3.60;;;21.80;66.00;;;;;;6207534;28;89025;-59
2023/12/16 05:12:34;;;;;;;4.00;3.60;;;21.80;66.20;;;;;;6193753;28;89128;-59
2023/12/16 05:15:36;;;;;;;4.05;3.35;;;21.80;66.20;;;;;;6193691;28;89426;-59
2023/12/16 05:18:38;;;;;;;4.15;3.75;;;21.90;66.40;;;;;;6207112;28;89154;-59
2023/12/16 05:21:40;;;;;;;4.20;3.80;;;21.80;66.30;;;;;;6197876;28;89392;-59
2023/12/16 05:24:42;;;;;;;5.40;4.00;;;21.80;66.40;;;;;;6221734;28;88878;-59
2023/12/16 05:27:46;;;;;;;5.32;4.28;;;21.80;66.50;;;;;;6217128;28;88272;-59
2023/12/16 05:30:48;;;;;;;6.35;4.65;;;21.80;66.60;;;;;;6200580;28;89129;-59
2023/12/16 05:33:50;;;;;;;5.43;3.97;;;21.80;66.60;;;;;;6206661;28;89048;-59
2023/12/16 05:36:53;;;;;;;4.10;3.70;;;21.80;66.60;;;;;;6193382;28;88877;-59
2023/12/16 05:39:54;;;;;;;4.50;4.10;;;21.80;66.50;;;;;;6193427;28;89273;-59
2023/12/16 05:42:58;;;;;;;4.05;3.65;;;21.80;66.40;;;;;;6193264;28;89171;-59
2023/12/16 05:46:00;;;;;;;4.38;3.97;;;21.80;66.40;;;;;;6204108;28;87950;-59
2023/12/16 05:49:03;;;;;;;4.38;3.95;;;21.80;66.30;;;;;;6206669;28;89025;-59
2023/12/16 05:52:05;;;;;;;4.13;3.72;;;21.80;66.40;;;;;;6207897;28;88792;-59
2023/12/16 05:55:08;;;;;;;4.35;3.90;;;21.80;66.40;;;;;;6217392;28;88331;-59
2023/12/16 05:58:11;;;;;;;4.95;4.30;;;21.80;66.40;;;;;;6212088;28;88342;-59
2023/12/16 06:01:19;;;;;;;4.38;3.97;;;21.80;66.40;;;;;;6205690;28;88957;-59
2023/12/16 06:04:21;;;;;;;3.97;3.65;;;21.80;66.40;;;;;;6203931;28;89412;-59
2023/12/16 06:07:23;;;;;;;4.50;4.10;;;21.70;66.30;;;;;;6198283;28;89978;-59
2023/12/16 06:10:25;;;;;;;4.00;3.65;;;21.80;66.40;;;;;;6199153;28;89125;-59
2023/12/16 06:13:28;;;;;;;4.03;3.63;;;21.70;66.30;;;;;;6206308;28;89352;-59
2023/12/16 06:16:30;;;;;;;6.35;4.30;;;21.70;66.40;;;;;;6193194;28;89140;-59
2023/12/16 06:19:32;;;;;;;5.03;3.90;;;21.70;66.40;;;;;;6191804;28;88314;-59
2023/12/16 06:22:34;;;;;;;4.25;3.85;;;21.70;66.50;;;;;;6181900;28;89280;-59
2023/12/16 06:25:36;;;;;;;4.63;3.80;;;21.70;66.60;;;;;;6204987;28;89696;-59
2023/12/16 06:28:39;;;;;;;4.20;3.80;;;21.70;66.60;;;;;;6205694;28;88620;-59
2023/12/16 06:31:41;;;;;;;3.88;3.58;;;21.60;66.60;;;;;;6205567;28;89103;-59
2023/12/16 06:34:43;;;;;;;4.25;3.70;;;21.70;66.60;;;;;;6205777;28;88993;-59
2023/12/16 06:37:45;;;;;;;4.03;3.50;;;21.60;66.60;;;;;;6204043;28;89989;-59
2023/12/16 06:40:47;;;;;;;4.55;3.95;;;21.60;66.60;;;;;;6213911;28;89111;-59
2023/12/16 06:43:51;;;;;;;5.95;4.10;;;21.60;66.70;;;;;;6196899;28;89413;-59
2023/12/16 06:46:53;;;;;;;4.55;3.53;;;21.60;66.80;;;;;;6206566;28;87761;-59
2023/12/16 06:49:55;;;;;;;3.60;3.30;;;21.60;66.80;;;;;;6187285;28;88816;-59
2023/12/16 06:52:57;;;;;;;3.67;3.38;;;21.60;66.80;;;;;;6208111;28;88999;-59
2023/12/16 06:55:59;;;;;;;5.22;3.88;;;21.60;66.80;;;;;;6207297;28;89048;-59
2023/12/16 06:59:02;;;;;;;3.75;3.45;;;21.60;66.70;;;;;;6223202;28;88402;-59
2023/12/16 07:02:04;;;;;;;3.75;3.45;;;21.60;67.10;;;;;;6203189;28;89102;-59
2023/12/16 07:05:08;;;;;;;3.63;3.33;;;21.60;66.70;;;;;;6186213;28;89016;-59
2023/12/16 07:08:12;;;;;;;3.58;3.28;;;21.60;66.60;;;;;;6205400;28;90306;-59
2023/12/16 07:11:14;;;;;;;4.00;3.55;;;21.60;66.60;;;;;;6202793;28;89337;-59
2023/12/16 07:14:18;;;;;;;4.50;3.60;;;21.60;66.60;;;;;;6209670;28;89223;-59
2023/12/16 07:17:20;;;;;;;3.40;3.10;;;21.60;66.60;;;;;;6215146;28;89037;-60
2023/12/16 07:20:21;;;;;;;4.13;3.03;;;21.60;66.50;;;;;;6205910;28;89200;-59
2023/12/16 07:23:24;;;;;;;4.32;3.50;;;21.60;66.50;;;;;;6211203;28;88717;-59
2023/12/16 07:26:26;;;;;;;4.80;3.72;;;21.60;66.40;;;;;;6212607;28;89092;-59
2023/12/16 07:29:29;;;;;;;3.60;3.30;;;21.60;66.40;;;;;;6210639;28;88297;-59
2023/12/16 07:32:31;;;;;;;4.25;3.38;;;21.60;66.30;;;;;;6207016;28;89043;-59
2023/12/16 07:35:34;;;;;;;4.13;3.45;;;21.60;66.30;;;;;;6198222;28;89090;-59
2023/12/16 07:38:36;;;;;;;3.78;3.40;;;21.60;66.30;;;;;;6206283;28;90270;-59
2023/12/16 07:41:38;;;;;;;3.30;3.00;;;21.50;66.20;;;;;;6201586;28;89388;-59
2023/12/16 07:44:42;;;;;;;3.30;3.00;;;21.60;66.30;;;;;;6203153;28;89040;-59
2023/12/16 07:47:43;;;;;;;3.20;2.90;;;21.50;66.20;;;;;;6202043;28;89139;-59
2023/12/16 07:50:45;;;;;;;4.03;3.22;;;21.50;66.20;;;;;;6212591;28;88056;-59
2023/12/16 07:53:48;;;;;;;4.05;3.20;;;21.50;66.20;;;;;;6202222;28;89155;-59
2023/12/16 07:56:50;;;;;;;4.07;3.35;;;21.50;66.20;;;;;;6212901;28;89475;-59
2023/12/16 07:59:54;;;;;;;3.50;3.17;;;21.50;66.20;;;;;;6203820;28;87236;-59
2023/12/16 08:02:56;;;;;;;3.20;2.90;;;21.50;66.30;;;;;;6208311;28;89086;-59
2023/12/16 08:05:58;;;;;;;3.75;3.13;;;21.50;66.20;;;;;;6207969;28;89045;-59
2023/12/16 08:09:00;;;;;;;3.38;3.08;;;21.50;66.20;;;;;;6214812;28;90402;-59
2023/12/16 08:12:02;;;;;;;3.58;3.28;;;21.50;66.30;;;;;;6207659;28;89067;-59
2023/12/16 08:15:06;;;;;;;3.90;3.40;;;21.50;66.40;;;;;;6201060;28;89173;-59
2023/12/16 08:18:09;;;;;;;3.58;3.10;;;21.40;66.30;;;;;;6210249;28;89232;-59
2023/12/16 08:21:11;;;;;;;3.58;3.15;;;21.50;66.40;;;;;;6207928;28;89091;-59
2023/12/16 08:24:14;;;;;;;3.65;3.15;;;21.50;66.40;;;;;;6191767;28;89319;-59
2023/12/16 08:27:16;;;;;;;3.50;3.20;;;21.40;66.40;;;;;;6211023;28;87943;-59
2023/12/16 08:30:19;;;;;;;3.97;3.58;;;21.40;66.40;;;;;;6209702;28;88744;-59
2023/12/16 08:33:21;;;;;;;3.88;3.47;;;21.40;66.40;;;;;;6229025;28;86986;-59
2023/12/16 08:36:23;;;;;;;3.90;3.40;;;21.40;66.40;;;;;;6223891;28;89854;-58
2023/12/16 08:39:25;;;;;;;3.80;3.40;;;21.40;66.50;;;;;;6218829;28;89939;-59
2023/12/16 08:42:27;;;;;;;5.20;3.63;;;21.40;66.60;;;;;;6208346;28;88976;-59
2023/12/16 08:45:30;;;;;;;3.75;3.40;;;21.40;66.70;;;;;;6220738;28;89405;-59
2023/12/16 08:48:32;;;;;;;4.53;4.00;;;21.40;66.70;;;;;;6195178;28;89036;-59
2023/12/16 08:51:34;;;;;;;3.90;3.50;;;21.40;66.70;;;;;;6206353;28;89461;-59
2023/12/16 08:54:37;;;;;;;4.25;3.80;;;21.40;66.70;;;;;;6194431;28;87980;-59
2023/12/16 08:57:39;;;;;;;3.67;3.38;;;21.40;66.70;;;;;;6206465;28;89045;-59
2023/12/16 09:00:43;;;;;;;5.25;3.65;;;21.40;66.70;;;;;;6204814;28;88727;-59
2023/12/16 09:03:45;;;;;;;3.83;3.50;;;21.40;66.70;;;;;;6203114;28;88719;-59
2023/12/16 09:06:47;;;;;;;6.13;4.15;;;21.40;66.70;;;;;;6197358;28;89085;-59
2023/12/16 09:09:49;;;;;;;4.70;3.65;;;21.40;66.70;;;;;;6204487;28;89998;-59
2023/12/16 09:12:51;;;;;;;3.83;3.22;;;21.40;66.70;;;;;;6195747;28;89309;-59
2023/12/16 09:15:54;;;;;;;3.90;3.50;;;21.40;66.70;;;;;;6193146;28;89231;-59
2023/12/16 09:18:56;;;;;;;4.20;3.58;;;21.40;66.70;;;;;;6206984;28;89210;-59
2023/12/16 09:21:58;;;;;;;3.83;3.33;;;21.40;66.70;;;;;;6196585;28;88155;-59
2023/12/16 09:25:01;;;;;;;3.70;3.40;;;21.40;66.70;;;;;;6205123;28;89133;-59
2023/12/16 09:28:03;;;;;;;3.70;3.30;;;21.40;66.70;;;;;;6216137;28;89104;-59
2023/12/16 09:31:06;;;;;;;3.72;3.38;;;21.40;66.70;;;;;;6218559;28;87943;-59
2023/12/16 09:34:09;;;;;;;3.78;3.35;;;21.30;66.60;;;;;;6218523;28;89250;-59
2023/12/16 09:37:11;;;;;;;5.35;3.70;;;21.30;66.80;;;;;;6218143;28;89352;-59
2023/12/16 09:40:13;;;;;;;4.22;3.35;;;21.30;66.70;;;;;;6226166;28;89952;-59
2023/12/16 09:43:16;;;;;;;4.13;3.35;;;21.30;66.90;;;;;;6206713;28;89022;-59
2023/12/16 09:46:20;;;;;;;4.85;3.50;;;21.40;67.00;;;;;;6212158;28;89032;-59
2023/12/16 09:49:24;;;;;;;3.90;3.50;;;21.40;66.80;;;;;;6206026;28;89121;-59
2023/12/16 09:52:27;;;;;;;3.47;3.17;;;21.40;66.90;;;;;;6204707;28;87975;-59
2023/12/16 09:55:29;;;;;;;3.47;3.17;;;21.40;66.80;;;;;;6195629;28;89802;-59
2023/12/16 09:58:34;;;;;;;3.78;3.33;;;21.40;66.90;;;;;;6191742;28;89246;-59
2023/12/16 10:01:37;;;;;;;3.40;3.10;;;21.40;66.60;;;;;;6199084;28;88433;-59
2023/12/16 10:04:40;;;;;;;3.35;3.05;;;21.40;66.60;;;;;;6206979;28;89012;-59
2023/12/16 10:07:42;;;;;;;3.70;3.30;;;21.40;66.70;;;;;;6215417;28;88974;-59
2023/12/16 10:10:44;;;;;;;4.50;3.60;;;21.40;66.80;;;;;;6216918;28;88885;-59
2023/12/16 10:13:56;;;;;;;4.20;3.60;;;21.40;66.80;;;;;;6209634;28;89038;-59
2023/12/16 10:17:03;;;;;;;4.40;3.20;;;21.40;66.90;;;;;;6218861;28;87963;-59
2023/12/16 10:20:07;;;;;;;3.95;3.50;;;21.50;67.10;;;;;;6209256;28;89633;-59
2023/12/16 10:23:10;;;;;;;3.63;3.10;;;21.50;66.90;;;;;;6220050;28;89069;-59
2023/12/16 10:26:13;;;;;;;3.53;3.22;;;21.50;66.90;;;;;;6206422;28;89406;-59
2023/12/16 10:29:19;;;;;;;3.33;3.03;;;21.50;66.90;;;;;;6200272;28;89020;-59
2023/12/16 10:32:22;;;;;;;5.00;3.67;;;21.50;66.70;;;;;;6211812;28;87299;-59
2023/12/16 10:35:24;;;;;;;5.05;3.33;;;21.60;66.80;;;;;;6220226;28;89101;-59
2023/12/16 10:38:26;;;;;;;3.45;3.15;;;21.60;66.70;;;;;;6210790;28;89138;-59
2023/12/16 10:41:28;;;;;;;3.45;3.15;;;21.70;66.70;;;;;;6213099;28;90177;-59
2023/12/16 10:44:31;;;;;;;3.85;3.30;;;21.70;66.60;;;;;;6222736;28;89041;-59
2023/12/16 10:47:35;;;;;;;3.88;3.40;;;21.70;66.50;;;;;;6196415;28;89060;-59
2023/12/16 10:50:43;;;;;;;4.68;3.35;;;21.70;66.50;;;;;;6221858;28;89122;-59
2023/12/16 10:53:53;;;;;;;3.03;2.70;;;21.80;66.60;;;;;;6217622;28;87921;-59
2023/12/16 10:57:06;;;;;;;4.07;3.17;;;21.80;66.40;;;;;;6222953;28;88800;-59
2023/12/16 11:00:11;;;;;;;4.57;3.60;;;21.80;66.50;;;;;;6221361;28;89321;-59
2023/12/16 11:03:22;;;;;;;4.07;3.22;;;21.80;66.20;;;;;;6198218;28;88486;-59
2023/12/16 11:06:34;;;;;;;3.70;3.15;;;21.80;66.40;;;;;;6209787;28;89044;-59
2023/12/16 11:09:37;;;;;;;3.45;3.15;;;21.80;66.40;;;;;;6210296;28;87860;-59
2023/12/16 11:12:40;;;;;;;3.70;3.25;;;21.80;66.50;;;;;;6219684;28;89827;-59
2023/12/16 11:15:43;;;;;;;3.72;3.40;;;21.90;66.40;;;;;;6220731;28;89065;-59
2023/12/16 11:18:50;;;;;;;3.55;3.15;;;21.90;66.30;;;;;;6206418;28;89044;-59
2023/12/16 11:21:52;;;;;;;3.10;2.80;;;21.90;66.40;;;;;;6204392;28;89369;-59
2023/12/16 11:24:56;;;;;;;3.65;3.10;;;21.80;66.50;;;;;;6222198;28;89478;-59
2023/12/16 11:27:58;;;;;;;3.30;3.00;;;21.90;66.40;;;;;;6205532;28;88972;-59
2023/12/16 11:31:01;;;;;;;3.70;3.35;;;21.90;66.40;;;;;;6202327;28;88086;-60
2023/12/16 11:34:05;;;;;;;5.18;3.95;;;21.90;66.40;;;;;;6222762;28;88412;-59
2023/12/16 11:37:07;;;;;;;5.30;3.47;;;21.90;66.20;;;;;;6208514;28;88976;-59
2023/12/16 11:40:42;;;;;;;3.30;2.95;;;21.90;66.20;;;;;;6217832;28;87950;-61
2023/12/16 11:43:48;;;;;;;3.78;3.20;;;21.90;66.20;;;;;;6196705;28;89956;-61
2023/12/16 11:46:50;;;;;;;3.60;3.05;;;21.90;66.20;;;;;;6222112;28;89483;-62
2023/12/16 11:49:55;;;;;;;3.67;3.22;;;21.90;66.30;;;;;;6208156;28;89053;-61
2023/12/16 11:52:57;;;;;;;3.67;3.30;;;21.90;66.10;;;;;;6207702;28;89079;-61
2023/12/16 11:56:00;;;;;;;5.50;3.47;;;21.90;66.00;;;;;;6220541;28;87970;-61
2023/12/16 11:59:02;;;;;;;3.70;2.97;;;21.90;66.00;;;;;;6220195;28;89048;-61
2023/12/16 12:02:06;;;;;;;3.03;2.72;;;22.00;66.20;;;;;;6216080;28;90578;-61
2023/12/16 12:05:11;;;;;;;4.70;3.33;;;22.00;66.20;;;;;;6195070;28;88320;-59
2023/12/16 12:08:13;;;;;;;4.45;3.17;;;22.00;65.90;;;;;;6221168;28;89009;-58
2023/12/16 12:11:17;;;;;;;3.22;2.92;;;22.00;66.00;;;;;;6220221;28;89356;-59
2023/12/16 12:14:20;;;;;;;3.00;2.70;;;21.90;65.90;;;;;;6230293;28;89937;-59
2023/12/16 12:17:22;;;;;;;3.47;2.75;;;21.90;65.90;;;;;;6209949;28;89120;-59
2023/12/16 12:20:25;;;;;;;3.22;2.80;;;22.00;66.00;;;;;;6201791;28;89028;-59
2023/12/16 12:23:27;;;;;;;3.00;2.70;;;21.90;65.90;;;;;;6203376;28;89082;-59
2023/12/16 12:26:29;;;;;;;3.00;2.70;;;22.00;65.90;;;;;;6220943;28;89000;-59
2023/12/16 12:29:55;;;;;;;3.88;3.10;;;21.90;65.90;;;;;;6208140;28;89017;-59
2023/12/16 12:32:57;;;;;;;3.25;2.95;;;21.90;65.70;;;;;;6196229;28;89223;-59
2023/12/16 12:36:01;;;;;;;3.17;2.88;;;22.00;65.80;;;;;;6211818;28;88344;-59
2023/12/16 12:39:06;;;;;;;4.55;3.25;;;22.00;65.80;;;;;;6199710;28;87964;-59
2023/12/16 12:42:08;;;;;;;3.67;2.90;;;22.00;65.80;;;;;;6208077;28;89199;-59
2023/12/16 12:45:10;;;;;;;6.70;6.10;;;22.00;65.80;;;;;;6198964;28;89915;-59
2023/12/16 12:48:13;;;;;;;8.43;7.70;;;22.00;65.70;;;;;;6207195;28;89074;-59
2023/12/16 12:51:17;;;;;;;6.40;5.80;;;22.00;65.50;;;;;;6198239;28;89065;-59
2023/12/16 12:54:20;;;;;;;5.30;4.80;;;22.00;65.70;;;;;;6203047;28;87945;-59
2023/12/16 12:57:22;;;;;;;4.82;4.38;;;22.00;65.70;;;;;;6210126;28;89117;-59
2023/12/16 13:00:24;;;;;;;4.30;3.70;;;22.00;65.80;;;;;;6210230;28;89392;-59
2023/12/16 13:03:27;;;;;;;4.20;3.80;;;22.00;65.80;;;;;;6204330;28;89096;-59
2023/12/16 13:06:31;;;;;;;4.18;3.70;;;22.00;65.80;;;;;;6215864;28;88395;-59
2023/12/16 13:09:33;;;;;;;4.80;3.90;;;22.00;65.70;;;;;;6211055;28;89111;-59
2023/12/16 13:12:34;;;;;;;3.75;3.45;;;22.00;65.80;;;;;;6203524;28;88999;-59
2023/12/16 13:15:36;;;;;;;3.83;3.40;;;22.00;65.80;;;;;;6205359;28;89041;-59
2023/12/16 13:18:42;;;;;;;3.95;3.58;;;22.00;65.70;;;;;;6206005;28;89123;-59
2023/12/16 13:21:45;;;;;;;3.88;3.50;;;22.00;65.80;;;;;;6187643;28;89623;-59
2023/12/16 13:24:47;;;;;;;3.85;3.47;;;22.00;65.70;;;;;;6199469;28;89001;-59
2023/12/16 13:27:49;;;;;;;3.60;3.30;;;22.00;65.50;;;;;;6203239;28;89506;-59
2023/12/16 13:30:51;;;;;;;5.07;4.05;;;22.00;65.70;;;;;;6206560;28;89355;-59
2023/12/16 13:33:53;;;;;;;5.22;3.90;;;22.00;65.50;;;;;;6205892;28;88910;-59
2023/12/16 13:36:57;;;;;;;3.58;3.00;;;22.00;65.50;;;;;;6208208;28;87190;-59
2023/12/16 13:40:00;;;;;;;3.45;3.13;;;22.00;65.50;;;;;;6205527;28;88994;-59
2023/12/16 13:43:03;;;;;;;3.42;3.13;;;22.00;65.50;;;;;;6212744;28;88868;-59
2023/12/16 13:46:06;;;;;;;3.78;3.33;;;22.00;65.60;;;;;;6215882;28;90087;-59
2023/12/16 13:49:11;;;;;;;3.55;2.88;;;22.00;65.70;;;;;;6216775;28;89031;-59
2023/12/16 13:52:15;;;;;;;3.78;2.90;;;22.00;65.50;;;;;;6211311;28;89346;-58
2023/12/16 13:55:17;;;;;;;3.33;3.03;;;22.00;65.40;;;;;;6206163;28;89496;-59
2023/12/16 13:58:21;;;;;;;3.25;2.90;;;22.00;65.60;;;;;;6222583;28;88160;-59
2023/12/16 14:01:23;;;;;;;3.38;3.08;;;22.00;65.50;;;;;;6216275;28;87958;-59
2023/12/16 14:04:25;;;;;;;3.42;3.10;;;22.00;65.40;;;;;;6214816;28;87877;-59
2023/12/16 14:07:28;;;;;;;2.83;2.45;;;22.00;65.50;;;;;;6216690;28;87191;-59
2023/12/16 14:10:30;;;;;;;3.53;2.88;;;22.00;65.70;;;;;;6210308;28;87986;-59
2023/12/16 14:13:32;;;;;;;3.20;2.90;;;22.10;65.90;;;;;;6218913;28;89186;-59
2023/12/16 14:16:34;;;;;;;3.92;3.05;;;22.10;65.40;;;;;;6217757;28;89957;-59
2023/12/16 14:19:36;;;;;;;4.30;3.22;;;22.00;65.20;;;;;;6195912;28;89133;-59
2023/12/16 14:22:40;;;;;;;3.88;3.42;;;22.00;65.10;;;;;;6218420;28;88108;-58
2023/12/16 14:25:42;;;;;;;3.50;3.20;;;22.00;64.90;;;;;;6219095;28;89043;-59
2023/12/16 14:28:44;;;;;;;3.83;3.40;;;22.00;65.00;;;;;;6216747;28;89044;-59
2023/12/16 14:31:48;;;;;;;4.07;3.08;;;22.00;65.00;;;;;;6205563;28;88021;-59
2023/12/16 14:34:50;;;;;;;3.65;3.28;;;22.00;65.00;;;;;;6197224;28;88985;-59
2023/12/16 14:37:54;;;;;;;3.70;3.22;;;22.00;65.00;;;;;;6202088;28;87214;-58
2023/12/16 14:40:56;;;;;;;5.72;3.88;;;22.00;64.90;;;;;;6202818;28;89154;-59
2023/12/16 14:43:57;;;;;;;4.25;3.70;;;22.00;64.90;;;;;;6182174;28;89049;-59
2023/12/16 14:46:59;;;;;;;4.10;3.70;;;22.00;65.10;;;;;;6193976;28;88973;-59
2023/12/16 14:50:02;;;;;;;4.75;4.10;;;22.00;65.20;;;;;;6192225;28;89001;-59
2023/12/16 14:53:07;;;;;;;4.88;3.90;;;22.00;65.20;;;;;;6204617;28;89016;-59
2023/12/16 14:56:09;;;;;;;4.40;3.75;;;22.00;64.90;;;;;;6204383;28;89461;-59
2023/12/16 14:59:11;;;;;;;11.07;6.05;;;22.00;64.90;;;;;;6202318;28;89189;-59
2023/12/16 15:02:13;;;;;;;4.28;3.88;;;21.90;64.90;;;;;;6206502;28;89150;-59
2023/12/16 15:05:16;;;;;;;4.63;4.22;;;22.00;65.10;;;;;;6208612;28;89264;-59
2023/12/16 15:08:19;;;;;;;5.45;4.85;;;22.00;65.50;;;;;;6206456;28;88319;-59
2023/12/16 15:11:21;;;;;;;5.68;5.05;;;21.90;65.00;;;;;;6208131;28;89204;-59
2023/12/16 15:14:23;;;;;;;5.20;4.70;;;21.90;65.20;;;;;;6198955;28;87895;-59
2023/12/16 15:17:25;;;;;;;5.60;5.03;;;21.90;64.90;;;;;;6210271;28;89979;-59
2023/12/16 15:20:29;;;;;;;5.80;4.97;;;22.00;65.10;;;;;;6207870;28;88925;-59
2023/12/16 15:23:32;;;;;;;5.50;5.00;;;21.90;65.10;;;;;;6217865;28;89754;-59
2023/12/16 15:26:34;;;;;;;5.43;4.93;;;21.90;65.30;;;;;;6220765;28;89054;-59
2023/12/16 15:29:37;;;;;;;5.60;5.10;;;22.00;65.20;;;;;;6207858;28;89158;-59
2023/12/16 15:32:38;;;;;;;5.72;4.78;;;21.90;65.00;;;;;;6212094;28;89020;-59
2023/12/16 15:35:40;;;;;;;6.50;5.20;;;22.00;64.70;;;;;;6210002;28;89152;-59
2023/12/16 15:38:45;;;;;;;6.85;5.53;;;21.90;64.40;;;;;;6216938;28;88360;-59
2023/12/16 15:41:48;;;;;;;5.20;4.70;;;21.90;64.40;;;;;;6211462;28;91475;-59
2023/12/16 15:44:50;;;;;;;6.00;5.00;;;21.90;64.00;;;;;;6220431;28;89089;-59
2023/12/16 15:47:52;;;;;;;6.45;5.50;;;21.90;63.90;;;;;;6211740;28;90006;-59
2023/12/16 15:50:54;;;;;;;8.15;6.25;;;21.90;63.80;;;;;;6204547;28;89134;-59
2023/12/16 15:53:57;;;;;;;8.88;6.43;;;21.90;63.70;;;;;;6207608;28;87924;-59